Toronto, Ontario

8:11 AM EST on December 19, 2014 (GMT -0500)
Toronto-City Centre | Change Station
CLOSE
Current Station
Airport
Location: Toronto,
Elevation: 253 ft
Nearby Weather Stations

Elev 253 ft 43.63 °N, 79.40 °W | Updated 11 minutes ago

Mostly Cloudy
Mostly Cloudy
23 °F
Feels Like 12 °F
N
12
Wind Variable Wind from NW

Today is forecast to be nearly the same temperature as yesterday.

Today
High -- | Low -- °F
--% Chance of Precip.
Yesterday
High -- | Low -- °F
Precip. -- in
7:46 AM 4:42 PM
Waning Crescent, 8% visible
Pressure 30.21 in
Visibility 9.0 miles
Clouds Scattered Clouds 1700 ft
Mostly Cloudy 6500 ft
Windchill 12 °F
Dew Point 18 °F
Humidity 80%
Rainfall 0.00 in
Snow Depth Not available.
UV 0 out of 12
Pollen Not available.
Air Quality Not available.
Flu Activity Not available.
METAR CYTZ 191300Z AUTO 31010KT 9SM SCT017 BKN065 M05/M08 A3019 RMK SLP229

More Conditions Fewer Conditions

Pressure 30.21 in
Visibility 9.0 miles
Clouds Scattered Clouds 1700 ft
Mostly Cloudy 6500 ft
Windchill 12 °F
Dew Point 18 °F
Humidity 80%
Rainfall 0.00 in
Snow Depth Not available.
UV 0 out of 12
Pollen Not available.
Air Quality Not available.
Flu Activity Not available.
METAR CYTZ 191300Z AUTO 31010KT 9SM SCT017 BKN065 M05/M08 A3019 RMK SLP229

More Conditions Fewer Conditions

10-Day Weather Forecast

Almanac

Astronomy

Dec. 19, 2014 Rise Set
Actual Time
Civil Twilight
Nautical Twilight
Astronomical Twilight
Moon
Length of Visible Light
Length of Day
Tomorrow will be .
, % of the Moon is Illuminated

Today's Extremes

Country Highs Country Lows

Community

WunderPhotos

Upload Photos

1,778,985 photos uploaded!

WunderBlogs® & News

Nearby

Air Quality

  Air Quality AQ Index Pollutant
Not available.

Snow Depth

Station Depth Elevation

Earthquake Activity

City Distance Mag. Time & Date
Minimum magnitude displayed is 2.5.

Coastal Water Temperatures

Place Temperature

Nearby Weather Stations